Scroll down
FLIGHT INFORMATION
PMDG Flight Operations

PFO1223

At Arrival Gate

KLAX
 YSSY
DATE: 2018-12-23
GATE: ICC1
GATE DEPARTURE: 21:53
TAKEOFF: 22:05
DATE: 2018-12-24
GATE: CARGO 2
LANDING: 11:37
GATE ARRIVAL: 11:46
FLIGHT DATA
Crew: 
Speed: 
519 kts
Altitude: 
40,012 ft
Stage Length: 
6,512.5 nm
Block Time: 
13.9 hrs
Flight Time: 
13.5 hrs
Fuel Used: 
320,293 lb
Cleared Route: DOCKR EVOSE MKGEE DARRK SUMMR BNANO DONKS FICKY FOOTS FLITY FIZEL 24N45 20N49 15N54 10N59 05N64 00N69 05W74 10S80 16S75 22S70 RUMIX 30S60 MARLN BIKUS WHALE PRAWN TESAT
TRACK DATA
50,000 ft 1,000 kts
AIRCRAFT INFO AND CUMULATIVE STATS
Aircraft Type: 
B744ERF
Registration: 
SELCAL: 
MSN/LN: 
0 / 2
Total Flights: 
4
Total Block Time: 
36.2 hrs
Total Flight Time: 
35.1 hrs
Total Fuel Time: 
495,855 lb
DATALINK LOG | Newest first | Current as of: 2020-12-05 22:10:04
LABEL SEQUENCE CONTENT Dn/Up
QD460811:46 40.5▼ Dn
GA4113CARGO STAND CARGO 2▲ Up
GR3826YSSY 11:44 MAAS YP/UM WCHR/S/C HI-VAL NO DIPL/VIP NO▼ Dn
QC375111:37▼ Dn
2U1951YSSY 241100Z 03014KT 9999 FEW020 22/17 Q1019▲ Up
2S1632YSSY▼ Dn
QB051222:05▼ Dn
QA535421:53 360.8▼ Dn
5U4941TAF YSSY 231633Z 2318/2424 29005KT CAVOK FM240000 04014KT CAVOK FM241200 29008KT CAVOK FM242300 03012KT CAVOK▲ Up
5S4653YSSY▼ Dn
2U4940KLAX 232053Z 26006KT 4SM HZ SCT220 BKN300 17/12 A3010 RMK AO2 SLP193 T01720122 58028▲ Up
2S4625KLAX▼ Dn


AIRCRAFT HISTORY
FLIGHT DATE FLIGHT NO. ORIGIN DESTINATION CLEARED ROUTE BLOCK TIME FLIGHT TIME FUEL USED PILOT
2020-11-14PFO519YPPH YWKS YPPH JANDO MANDU YBLN 35S15 40S14 45S13 50S13 55S13 60S12 65S11 YWKS4.6 hrs4.5 hrs94,675 lbSteven Perry
2020-04-28PFO428YSSY YPPH YSSY DUNES KAMPI KADOM PKS NEWMO SAPED LEC RUSAD ISMOR BEVLY BOOKA PONYS DELAK MUMOS ROLOB WOORA HAIGH RW214.3 hrs4.2 hrs105,600 lbRandall Smith
2018-12-23PFO1223KLAX YSSY DOCKR EVOSE MKGEE DARRK SUMMR BNANO DONKS FICKY FOOTS FLITY FIZEL 24N45 20N49 15N54 10N59 05N64 00N69 05W74 10S80 16S75 22S70 RUMIX 30S60 MARLN BIKUS WHALE PRAWN TESAT13.9 hrs13.5 hrs320,293 lbKyle Rodgers
2018-07-08PFO717VHHH KLAX 13.2 hrs12.8 hrs294,745 lbKyle Rodgers